Time;durP1;ratioP1;P1;durP2;ratioP2;P2;SDS_P1;SDS_P2;PMS_P1;PMS_P2;Temp;Humidity;BMP_temperature;BMP_pressure;BME280_temperature;BME280_humidity;BME280_pressure;Samples;Min_cycle;Max_cycle;Signal;HPM_P1;HPM_P2
2023/06/18 00:02:24;;;;;;;14.27;12.60;;;17.10;99.90;;;;;;4978213;28;20309;-73
2023/06/18 00:04:53;;;;;;;15.45;12.93;;;17.10;99.90;;;;;;4995724;28;20058;-73
2023/06/18 00:07:21;;;;;;;14.68;12.27;;;17.10;99.90;;;;;;4994946;28;20144;-73
2023/06/18 00:09:49;;;;;;;14.27;12.82;;;17.10;99.90;;;;;;4994323;28;20050;-73
2023/06/18 00:12:17;;;;;;;13.90;12.40;;;17.00;99.90;;;;;;4991560;28;20066;-74
2023/06/18 00:14:45;;;;;;;14.20;12.55;;;16.90;99.90;;;;;;5010019;28;20498;-73
2023/06/18 00:17:12;;;;;;;14.27;12.77;;;16.80;99.90;;;;;;4993168;28;20204;-73
2023/06/18 00:19:40;;;;;;;13.95;12.52;;;16.80;99.90;;;;;;4993655;28;20046;-73
2023/06/18 00:22:07;;;;;;;14.60;12.45;;;16.70;99.90;;;;;;4994253;28;20465;-72
2023/06/18 00:24:35;;;;;;;13.88;12.32;;;16.70;99.90;;;;;;4993116;28;20140;-73
2023/06/18 00:27:03;;;;;;;13.45;12.05;;;16.60;99.90;;;;;;4977243;28;20054;-74
2023/06/18 00:29:31;;;;;;;14.00;12.48;;;16.50;99.90;;;;;;5009247;28;20054;-73
2023/06/18 00:31:59;;;;;;;15.07;12.50;;;16.50;99.90;;;;;;4994088;28;20591;-73
2023/06/18 00:34:32;;;;;;;14.13;12.65;;;16.50;99.90;;;;;;5010143;28;20089;-73
2023/06/18 00:37:00;;;;;;;13.88;12.38;;;16.40;99.90;;;;;;5011166;28;20133;-73
2023/06/18 00:39:28;;;;;;;14.23;12.43;;;16.40;99.90;;;;;;5009509;28;20053;-73
2023/06/18 00:41:56;;;;;;;16.27;13.38;;;16.40;99.90;;;;;;4983202;28;20100;-73
2023/06/18 00:44:24;;;;;;;14.75;12.93;;;16.40;99.90;;;;;;5008940;28;20418;-72
2023/06/18 00:46:56;;;;;;;14.82;12.77;;;16.30;99.90;;;;;;4970443;28;20061;-73
2023/06/18 00:49:28;;;;;;;15.32;13.05;;;16.40;99.90;;;;;;4993135;28;20058;-72
2023/06/18 00:51:58;;;;;;;15.60;13.23;;;16.30;99.90;;;;;;5012054;28;20567;-73
2023/06/18 00:54:30;;;;;;;15.68;13.32;;;16.30;99.90;;;;;;4993612;28;20050;-73
2023/06/18 00:56:59;;;;;;;16.27;12.57;;;16.30;99.90;;;;;;4997881;28;20077;-72
2023/06/18 00:59:29;;;;;;;14.27;12.48;;;16.30;99.90;;;;;;5013569;28;20046;-73
2023/06/18 01:02:00;;;;;;;16.98;12.75;;;16.30;99.90;;;;;;4991219;28;20074;-73
2023/06/18 01:04:32;;;;;;;14.30;12.77;;;16.20;99.90;;;;;;5009948;28;20514;-72
2023/06/18 01:07:01;;;;;;;16.20;12.60;;;16.20;99.90;;;;;;4991575;28;20057;-72
2023/06/18 01:09:31;;;;;;;17.38;12.80;;;16.20;99.90;;;;;;4976065;28;20065;-74
2023/06/18 01:12:00;;;;;;;15.90;13.25;;;16.20;99.90;;;;;;4992873;28;20196;-72
2023/06/18 01:14:30;;;;;;;13.38;11.98;;;16.20;99.90;;;;;;5008798;28;20042;-73
2023/06/18 01:17:03;;;;;;;18.30;13.60;;;16.20;99.90;;;;;;5008115;28;20425;-73
2023/06/18 01:19:47;;;;;;;16.67;12.98;;;16.20;99.90;;;;;;4973731;28;20125;-73
2023/06/18 01:22:52;;;;;;;14.13;12.70;;;16.20;99.90;;;;;;4961407;28;20059;-73
2023/06/18 01:25:25;;;;;;;14.70;13.20;;;16.20;99.90;;;;;;4970929;28;20072;-73
2023/06/18 01:27:54;;;;;;;14.38;12.70;;;16.10;99.90;;;;;;4994387;28;20049;-72
2023/06/18 01:30:22;;;;;;;14.90;13.05;;;16.10;99.90;;;;;;4994211;28;20077;-73
2023/06/18 01:32:54;;;;;;;16.92;14.27;;;16.10;99.90;;;;;;5007927;28;20070;-73
2023/06/18 01:35:22;;;;;;;15.60;13.55;;;16.00;99.90;;;;;;4992473;28;20297;-72
2023/06/18 01:37:56;;;;;;;15.55;13.52;;;16.00;99.90;;;;;;5012882;28;20045;-73
2023/06/18 01:40:45;;;;;;;15.30;13.70;;;16.00;99.90;;;;;;5011158;28;20510;-72
2023/06/18 01:43:36;;;;;;;15.13;13.50;;;15.90;99.90;;;;;;5008906;28;20625;-72
2023/06/18 01:46:10;;;;;;;15.57;13.45;;;15.80;99.90;;;;;;4987269;28;20050;-72
2023/06/18 01:48:45;;;;;;;16.77;13.05;;;15.90;99.90;;;;;;4996508;28;20058;-72
2023/06/18 01:51:17;;;;;;;17.90;14.63;;;15.80;99.90;;;;;;4991482;28;20069;-73
2023/06/18 01:53:47;;;;;;;17.10;13.70;;;15.80;99.90;;;;;;4987065;28;20149;-73
2023/06/18 01:56:15;;;;;;;16.83;13.13;;;15.80;99.90;;;;;;5012759;28;20050;-73
2023/06/18 01:58:43;;;;;;;18.23;13.40;;;15.80;99.90;;;;;;4984548;28;20060;-72
2023/06/18 02:01:11;;;;;;;16.30;14.55;;;15.80;99.90;;;;;;5008219;28;20123;-73
2023/06/18 02:03:40;;;;;;;15.05;13.45;;;15.80;99.90;;;;;;5009026;28;20462;-73
2023/06/18 02:06:08;;;;;;;17.35;14.48;;;15.70;99.90;;;;;;4991094;28;20061;-73
2023/06/18 02:08:36;;;;;;;17.83;14.55;;;15.70;99.90;;;;;;4978007;28;20083;-72
2023/06/18 02:11:08;;;;;;;16.73;14.50;;;15.70;99.90;;;;;;4975197;28;20415;-73
2023/06/18 02:13:37;;;;;;;18.77;15.50;;;15.60;99.90;;;;;;4974514;28;20065;-72
2023/06/18 02:16:05;;;;;;;15.88;14.18;;;15.70;99.90;;;;;;4995115;28;20050;-72
2023/06/18 02:18:32;;;;;;;20.77;14.65;;;15.70;99.90;;;;;;4991982;28;20089;-73
2023/06/18 02:21:00;;;;;;;16.10;13.98;;;15.70;99.90;;;;;;5010726;28;20105;-73
2023/06/18 02:23:28;;;;;;;14.65;13.05;;;15.70;99.90;;;;;;4990922;28;20049;-73
2023/06/18 02:25:58;;;;;;;16.15;13.35;;;15.60;99.90;;;;;;5008615;28;20160;-72
2023/06/18 02:28:28;;;;;;;15.07;13.48;;;15.70;99.90;;;;;;5008296;28;20045;-72
2023/06/18 02:30:56;;;;;;;16.00;13.73;;;15.60;99.90;;;;;;4976184;28;20481;-74
2023/06/18 02:33:23;;;;;;;15.85;14.07;;;15.60;99.90;;;;;;5007119;28;20061;-72
2023/06/18 02:35:51;;;;;;;15.60;13.38;;;15.60;99.90;;;;;;4990289;28;20089;-72
2023/06/18 02:38:20;;;;;;;15.20;13.63;;;15.50;99.90;;;;;;5008299;28;20049;-72
2023/06/18 02:40:47;;;;;;;15.75;13.63;;;15.40;99.90;;;;;;4990797;28;20042;-73
2023/06/18 02:43:15;;;;;;;15.27;13.63;;;15.40;99.90;;;;;;4975252;28;20089;-73
2023/06/18 02:45:43;;;;;;;16.33;13.32;;;15.40;99.90;;;;;;4992532;28;20128;-73
2023/06/18 02:48:12;;;;;;;15.48;13.52;;;15.40;99.90;;;;;;4990860;28;20049;-72
2023/06/18 02:50:40;;;;;;;14.75;13.15;;;15.30;99.90;;;;;;4985474;28;20054;-73
2023/06/18 02:53:08;;;;;;;14.77;13.27;;;15.30;99.90;;;;;;4991743;28;20239;-72
2023/06/18 02:55:36;;;;;;;17.48;13.77;;;15.30;99.90;;;;;;4991559;28;20112;-73
2023/06/18 02:58:04;;;;;;;14.73;12.95;;;15.20;99.90;;;;;;4975285;28;20056;-73
2023/06/18 03:00:31;;;;;;;16.95;13.35;;;15.20;99.90;;;;;;4976744;28;20237;-73
2023/06/18 03:02:58;;;;;;;14.18;12.68;;;15.20;99.90;;;;;;4994214;28;20081;-72
2023/06/18 03:05:30;;;;;;;14.27;12.77;;;15.10;99.90;;;;;;4978581;28;20560;-73
2023/06/18 03:07:58;;;;;;;14.95;13.38;;;15.10;99.90;;;;;;4994494;28;20072;-74
2023/06/18 03:10:27;;;;;;;13.85;12.45;;;15.20;99.90;;;;;;5012325;28;20145;-73
2023/06/18 03:12:56;;;;;;;15.43;12.85;;;15.10;99.90;;;;;;5011247;28;20129;-72
2023/06/18 03:15:40;;;;;;;15.27;13.40;;;15.20;99.90;;;;;;4978753;28;20458;-73
2023/06/18 03:18:08;;;;;;;14.52;12.57;;;15.20;99.90;;;;;;4978521;28;20513;-73
2023/06/18 03:20:37;;;;;;;13.68;11.90;;;15.10;99.90;;;;;;4979553;28;20459;-72
2023/06/18 03:23:06;;;;;;;14.30;12.80;;;15.00;99.90;;;;;;4997061;28;20042;-73
2023/06/18 03:25:35;;;;;;;15.00;12.43;;;15.00;99.90;;;;;;5010793;28;20504;-73
2023/06/18 03:28:02;;;;;;;16.00;12.75;;;15.00;99.90;;;;;;4995322;28;20050;-73
2023/06/18 03:30:35;;;;;;;14.97;12.93;;;15.00;99.90;;;;;;4978657;28;20086;-73
2023/06/18 03:33:03;;;;;;;14.82;12.93;;;15.00;99.90;;;;;;4978919;28;20042;-72
2023/06/18 03:35:33;;;;;;;14.13;12.70;;;15.00;99.90;;;;;;5013664;28;20367;-73
2023/06/18 03:38:03;;;;;;;15.02;12.82;;;15.00;99.90;;;;;;4996026;28;20246;-72
2023/06/18 03:40:32;;;;;;;15.45;12.45;;;15.00;99.90;;;;;;4966552;28;20093;-73
2023/06/18 03:43:00;;;;;;;15.82;13.45;;;15.00;99.90;;;;;;4987116;28;20244;-73
2023/06/18 03:45:29;;;;;;;16.05;13.52;;;15.00;99.90;;;;;;4987210;28;20073;-73
2023/06/18 03:47:59;;;;;;;14.27;12.52;;;15.00;99.90;;;;;;5014192;28;20080;-72
2023/06/18 03:50:34;;;;;;;16.17;13.38;;;15.10;99.90;;;;;;5013358;28;20133;-73
2023/06/18 03:53:03;;;;;;;21.15;13.40;;;15.20;99.90;;;;;;4994641;28;20072;-74
2023/06/18 03:55:33;;;;;;;15.95;13.52;;;15.20;99.90;;;;;;4994866;28;20057;-71
2023/06/18 03:58:00;;;;;;;15.40;12.48;;;15.20;99.90;;;;;;5010389;28;20050;-72
2023/06/18 04:00:30;;;;;;;14.02;12.45;;;15.20;99.90;;;;;;4978886;28;20050;-73
2023/06/18 04:02:58;;;;;;;15.63;12.68;;;15.30;99.90;;;;;;4977318;28;20393;-73
2023/06/18 04:05:27;;;;;;;14.82;12.77;;;15.40;99.90;;;;;;4975977;28;20066;-72
2023/06/18 04:07:56;;;;;;;16.02;13.40;;;15.50;99.90;;;;;;4993764;28;20177;-73
2023/06/18 04:10:24;;;;;;;15.45;12.95;;;15.50;99.90;;;;;;5011294;28;20100;-72
2023/06/18 04:12:52;;;;;;;16.30;13.38;;;15.50;99.90;;;;;;4993117;28;20540;-73
2023/06/18 04:15:21;;;;;;;14.85;12.40;;;15.50;99.90;;;;;;4976309;28;20144;-72
2023/06/18 04:17:51;;;;;;;14.30;12.80;;;15.60;99.90;;;;;;4994488;28;20112;-73
2023/06/18 04:20:20;;;;;;;15.32;13.73;;;15.70;99.90;;;;;;4994556;28;20077;-74
2023/06/18 04:22:50;;;;;;;16.70;13.60;;;15.80;99.90;;;;;;5002853;28;20528;-74
2023/06/18 04:25:21;;;;;;;16.70;13.68;;;15.90;99.90;;;;;;4965748;28;20060;-72
2023/06/18 04:27:53;;;;;;;14.60;13.10;;;15.90;99.90;;;;;;5018060;28;20117;-73
2023/06/18 04:30:21;;;;;;;14.98;13.32;;;16.00;99.90;;;;;;4979085;28;20046;-73
2023/06/18 04:32:49;;;;;;;14.85;12.88;;;16.10;99.90;;;;;;4960962;28;20148;-73
2023/06/18 04:35:19;;;;;;;14.93;12.95;;;16.20;99.90;;;;;;4978138;28;20054;-73
2023/06/18 04:37:47;;;;;;;16.50;13.38;;;16.20;99.90;;;;;;4978098;28;20060;-72
2023/06/18 04:40:16;;;;;;;14.90;13.23;;;16.30;99.90;;;;;;4978531;28;20048;-73
2023/06/18 04:42:46;;;;;;;15.45;13.38;;;16.30;99.90;;;;;;4987943;28;20053;-72
2023/06/18 04:45:20;;;;;;;15.13;13.48;;;16.30;99.90;;;;;;5011280;28;20053;-73
2023/06/18 04:47:49;;;;;;;14.65;13.15;;;16.40;99.90;;;;;;4995951;28;20046;-73
2023/06/18 04:50:17;;;;;;;16.13;13.45;;;16.50;99.90;;;;;;4977839;28;20358;-73
2023/06/18 04:52:48;;;;;;;15.57;13.82;;;16.50;99.90;;;;;;4980196;28;20085;-74
2023/06/18 04:55:19;;;;;;;15.77;14.05;;;16.60;99.90;;;;;;4977608;28;20517;-73
2023/06/18 04:57:47;;;;;;;14.57;13.00;;;16.60;99.90;;;;;;4993331;28;20074;-73
2023/06/18 05:00:19;;;;;;;16.67;14.88;;;16.60;99.90;;;;;;4993392;28;20054;-73
2023/06/18 05:02:50;;;;;;;16.65;14.57;;;16.70;99.90;;;;;;5001234;28;20050;-73
2023/06/18 05:05:18;;;;;;;20.33;14.52;;;16.80;99.90;;;;;;4995699;28;20113;-73
2023/06/18 05:07:48;;;;;;;17.70;14.18;;;16.80;99.90;;;;;;4978286;28;20481;-74
2023/06/18 05:10:16;;;;;;;15.02;13.43;;;16.90;99.90;;;;;;4994545;28;20053;-72
2023/06/18 05:12:45;;;;;;;17.17;13.75;;;16.90;99.90;;;;;;4985273;28;20054;-72
2023/06/18 05:15:13;;;;;;;15.23;13.63;;;17.00;99.90;;;;;;4975852;28;20528;-72
2023/06/18 05:17:43;;;;;;;15.38;13.57;;;17.00;99.90;;;;;;4976607;28;20061;-72
2023/06/18 05:20:13;;;;;;;14.95;12.32;;;17.10;99.90;;;;;;4992504;28;20064;-72
2023/06/18 05:22:42;;;;;;;14.55;13.13;;;17.20;99.90;;;;;;4976844;28;20418;-72
2023/06/18 05:25:11;;;;;;;15.50;13.82;;;17.30;99.90;;;;;;4975837;28;20398;-72
2023/06/18 05:27:39;;;;;;;14.52;13.02;;;17.30;99.90;;;;;;4993535;28;20468;-72
2023/06/18 05:30:07;;;;;;;16.48;13.18;;;17.40;99.90;;;;;;4995495;28;20584;-72
2023/06/18 05:32:35;;;;;;;16.00;13.68;;;17.40;99.90;;;;;;4978896;28;20160;-73
2023/06/18 05:35:09;;;;;;;15.07;13.48;;;17.50;99.90;;;;;;4978456;28;20509;-72
2023/06/18 05:37:44;;;;;;;16.20;13.23;;;17.60;99.90;;;;;;4977712;28;20173;-73
2023/06/18 05:40:11;;;;;;;14.60;12.82;;;17.60;99.90;;;;;;4975738;28;20133;-73
2023/06/18 05:42:39;;;;;;;15.05;13.27;;;17.70;99.90;;;;;;5009802;28;20061;-73
2023/06/18 05:45:09;;;;;;;14.63;13.05;;;17.80;99.90;;;;;;4994257;28;20514;-73
2023/06/18 05:47:37;;;;;;;13.82;12.43;;;17.90;99.90;;;;;;5000911;28;20156;-73
2023/06/18 05:50:09;;;;;;;16.95;13.52;;;18.00;99.90;;;;;;4997785;28;20065;-72
2023/06/18 05:52:37;;;;;;;15.25;13.48;;;18.20;99.90;;;;;;4997079;28;20060;-72
2023/06/18 05:55:08;;;;;;;16.15;13.70;;;18.20;99.90;;;;;;4976695;28;20069;-72
2023/06/18 05:57:37;;;;;;;15.23;12.82;;;18.30;99.90;;;;;;4991777;28;20069;-72
2023/06/18 06:00:09;;;;;;;15.13;13.55;;;18.40;99.90;;;;;;4992726;28;20080;-72
2023/06/18 06:02:45;;;;;;;13.75;12.35;;;18.50;99.90;;;;;;4999904;28;20543;-72
2023/06/18 06:05:20;;;;;;;14.57;13.02;;;18.50;99.90;;;;;;4977245;28;20597;-72
2023/06/18 06:07:49;;;;;;;16.65;12.88;;;18.60;99.90;;;;;;4991075;28;20037;-72
2023/06/18 06:10:18;;;;;;;15.23;13.48;;;18.60;99.90;;;;;;4991610;28;20157;-72
2023/06/18 06:12:48;;;;;;;14.52;12.55;;;18.60;99.90;;;;;;4988513;28;20109;-72
2023/06/18 06:15:16;;;;;;;14.88;13.15;;;18.50;99.90;;;;;;4988106;28;20104;-72
2023/06/18 06:17:44;;;;;;;15.18;13.20;;;18.70;99.90;;;;;;4959384;28;20062;-72
2023/06/18 06:20:13;;;;;;;15.25;13.65;;;18.80;99.90;;;;;;5011122;28;20492;-72
2023/06/18 06:22:41;;;;;;;16.55;13.30;;;18.80;99.90;;;;;;4977279;28;20100;-72
2023/06/18 06:25:09;;;;;;;14.93;13.32;;;18.90;99.90;;;;;;4993017;28;20076;-72
2023/06/18 06:27:38;;;;;;;16.60;14.07;;;19.10;99.90;;;;;;5007680;28;20061;-72
2023/06/18 06:30:08;;;;;;;14.57;13.07;;;19.30;99.90;;;;;;4972382;28;20050;-72
2023/06/18 06:32:36;;;;;;;15.07;13.30;;;19.30;99.90;;;;;;4990935;28;20065;-73
2023/06/18 06:35:05;;;;;;;14.43;12.95;;;19.50;99.90;;;;;;4975943;28;20378;-73
2023/06/18 06:37:34;;;;;;;17.40;13.00;;;19.60;99.90;;;;;;4980709;28;20138;-72
2023/06/18 06:40:06;;;;;;;13.75;12.30;;;19.70;99.90;;;;;;4982681;28;20038;-73
2023/06/18 06:42:36;;;;;;;16.60;12.90;;;19.80;99.90;;;;;;4980355;28;20403;-73
2023/06/18 06:45:27;;;;;;;17.02;13.77;;;20.00;99.90;;;;;;4994903;28;20053;-73
2023/06/18 06:48:13;;;;;;;14.40;12.90;;;19.90;99.90;;;;;;4982654;28;20580;-72
2023/06/18 06:50:55;;;;;;;13.82;12.05;;;20.00;99.90;;;;;;4973694;28;20053;-72
2023/06/18 06:53:34;;;;;;;14.73;12.13;;;20.20;99.90;;;;;;4996901;28;20057;-73
2023/06/18 06:56:02;;;;;;;13.35;12.02;;;20.40;99.90;;;;;;4980590;28;20050;-72
2023/06/18 06:58:32;;;;;;;13.23;11.90;;;20.50;99.90;;;;;;4977970;28;20050;-73
2023/06/18 07:01:00;;;;;;;15.10;13.55;;;20.60;99.90;;;;;;5013134;28;20046;-72
2023/06/18 07:03:28;;;;;;;14.15;12.65;;;20.70;99.90;;;;;;4994685;28;20057;-73
2023/06/18 07:05:55;;;;;;;12.90;11.60;;;20.80;99.90;;;;;;4977124;28;20081;-73
2023/06/18 07:08:23;;;;;;;13.18;11.85;;;20.80;99.90;;;;;;5012498;28;20054;-72
2023/06/18 07:10:50;;;;;;;13.73;12.20;;;21.00;99.90;;;;;;4998164;28;20061;-72
2023/06/18 07:13:19;;;;;;;14.27;12.43;;;21.10;99.90;;;;;;4996445;28;20048;-72
2023/06/18 07:15:48;;;;;;;14.50;11.68;;;21.30;99.90;;;;;;4995820;28;20049;-72
2023/06/18 07:18:15;;;;;;;13.00;11.70;;;21.30;99.90;;;;;;4995034;28;21944;-73
2023/06/18 07:20:44;;;;;;;13.55;12.05;;;21.40;99.90;;;;;;4996753;28;20050;-73
2023/06/18 07:23:13;;;;;;;13.65;12.25;;;21.50;99.90;;;;;;4996914;28;20038;-73
2023/06/18 07:25:41;;;;;;;13.15;11.48;;;21.70;99.90;;;;;;5013299;28;20049;-72
2023/06/18 07:28:10;;;;;;;15.15;12.55;;;21.80;99.90;;;;;;4979717;28;20042;-72
2023/06/18 07:30:38;;;;;;;16.63;13.02;;;21.90;99.90;;;;;;4994287;28;20068;-73
2023/06/18 07:33:06;;;;;;;13.30;11.68;;;22.00;99.90;;;;;;5000123;28;20133;-71
2023/06/18 07:35:34;;;;;;;15.68;13.80;;;22.20;99.90;;;;;;4995008;28;20085;-72
2023/06/18 07:38:02;;;;;;;12.38;11.07;;;22.30;99.90;;;;;;4977726;28;20042;-72
2023/06/18 07:40:33;;;;;;;13.70;11.88;;;22.50;99.90;;;;;;4993938;28;20379;-74
2023/06/18 07:43:01;;;;;;;12.43;11.13;;;22.60;99.90;;;;;;5011118;28;20049;-73
2023/06/18 07:45:29;;;;;;;12.32;11.13;;;22.80;99.90;;;;;;5011828;28;20046;-73
2023/06/18 07:47:56;;;;;;;12.73;11.43;;;22.90;99.90;;;;;;5009238;28;20493;-73
2023/06/18 07:50:25;;;;;;;12.38;10.63;;;23.00;99.90;;;;;;5012501;28;20080;-73
2023/06/18 07:52:53;;;;;;;13.57;11.32;;;23.10;99.90;;;;;;4978392;28;20525;-72
2023/06/18 07:55:21;;;;;;;13.93;12.52;;;23.20;99.90;;;;;;4994145;28;20061;-73
2023/06/18 07:57:48;;;;;;;13.27;11.20;;;23.30;99.90;;;;;;4995301;28;20129;-73
2023/06/18 08:00:16;;;;;;;11.85;10.65;;;23.40;99.90;;;;;;4995601;28;20053;-73
2023/06/18 08:02:46;;;;;;;14.32;11.55;;;23.50;99.90;;;;;;5010305;28;20042;-73
2023/06/18 08:05:15;;;;;;;12.90;11.60;;;23.60;99.90;;;;;;4994909;28;20057;-73
2023/06/18 08:07:43;;;;;;;12.45;11.30;;;23.70;99.90;;;;;;5012678;28;20077;-73
2023/06/18 08:10:12;;;;;;;11.60;10.23;;;23.60;99.90;;;;;;4993705;28;20100;-73
2023/06/18 08:12:40;;;;;;;15.23;11.23;;;23.60;99.90;;;;;;5003103;28;20058;-73
2023/06/18 08:15:10;;;;;;;11.85;10.65;;;23.70;99.50;;;;;;5013765;28;20056;-74
2023/06/18 08:17:37;;;;;;;14.27;10.88;;;23.90;99.50;;;;;;5007158;28;20064;-74
2023/06/18 08:20:09;;;;;;;15.88;11.80;;;24.00;98.60;;;;;;5012446;28;20053;-74
2023/06/18 08:22:37;;;;;;;12.38;11.10;;;23.90;98.10;;;;;;4966030;28;20065;-73
2023/06/18 08:25:06;;;;;;;13.60;10.65;;;24.10;97.90;;;;;;4977792;28;20144;-73
2023/06/18 08:27:34;;;;;;;11.15;10.05;;;24.20;97.70;;;;;;5010652;28;20133;-74
2023/06/18 08:30:05;;;;;;;11.48;10.30;;;24.40;97.00;;;;;;4977445;28;20046;-73
2023/06/18 08:32:33;;;;;;;12.80;11.55;;;24.50;96.60;;;;;;4990860;28;20493;-73
2023/06/18 08:35:02;;;;;;;15.45;13.45;;;24.50;95.80;;;;;;4995297;28;20525;-73
2023/06/18 08:37:30;;;;;;;13.23;10.70;;;24.50;95.70;;;;;;4994685;28;20058;-73
2023/06/18 08:39:57;;;;;;;12.23;10.93;;;24.50;95.70;;;;;;5017463;28;20457;-73
2023/06/18 08:42:25;;;;;;;11.38;10.23;;;24.80;95.00;;;;;;5013263;28;20112;-72
2023/06/18 08:44:54;;;;;;;12.00;10.55;;;24.70;94.90;;;;;;4991912;28;20100;-72
2023/06/18 08:47:26;;;;;;;11.65;10.48;;;24.80;93.90;;;;;;4992868;28;20050;-73
2023/06/18 08:49:55;;;;;;;;;;;24.90;93.80;;;;;;5010844;28;20108;-73
2023/06/18 08:52:25;;;;;;;11.93;10.75;;;25.00;93.40;;;;;;4978106;28;19922;-73
2023/06/18 08:54:57;;;;;;;11.88;10.68;;;24.90;93.30;;;;;;4992998;28;20064;-73
2023/06/18 08:57:40;;;;;;;15.77;10.68;;;25.10;93.00;;;;;;4993073;28;20054;-73
2023/06/18 09:00:08;;;;;;;11.85;10.75;;;25.30;92.70;;;;;;5009469;28;20056;-72
2023/06/18 09:02:39;;;;;;;11.85;9.73;;;25.20;91.90;;;;;;4977148;28;20127;-73
2023/06/18 09:05:08;;;;;;;9.90;8.90;;;25.30;92.10;;;;;;4993580;28;20088;-73
2023/06/18 09:07:38;;;;;;;10.50;9.40;;;25.40;91.60;;;;;;5001275;28;20054;-73
2023/06/18 09:10:08;;;;;;;10.38;9.38;;;25.50;91.10;;;;;;4994800;28;20080;-73
2023/06/18 09:12:36;;;;;;;12.05;9.93;;;25.60;91.20;;;;;;4994862;28;20543;-72
2023/06/18 09:15:04;;;;;;;10.25;9.23;;;25.60;90.70;;;;;;4993268;28;20108;-73
2023/06/18 09:17:35;;;;;;;10.10;9.10;;;25.70;90.30;;;;;;4977297;28;20066;-73
2023/06/18 09:20:06;;;;;;;11.80;9.43;;;25.60;90.20;;;;;;5011224;28;20042;-73
2023/06/18 09:22:47;;;;;;;12.63;9.98;;;25.80;90.20;;;;;;4983411;28;20502;-72
2023/06/18 09:25:21;;;;;;;10.82;9.70;;;25.90;88.90;;;;;;4977358;28;20050;-74
2023/06/18 09:27:56;;;;;;;10.90;9.48;;;25.90;87.80;;;;;;4992202;28;20050;-74
2023/06/18 09:30:23;;;;;;;10.13;9.05;;;26.00;87.70;;;;;;4974904;28;20077;-74
2023/06/18 09:32:57;;;;;;;10.48;9.38;;;26.10;86.40;;;;;;4975924;28;20053;-74
2023/06/18 09:35:25;;;;;;;10.65;9.25;;;26.30;85.60;;;;;;4973760;28;20085;-73
2023/06/18 09:37:53;;;;;;;14.43;9.82;;;26.30;84.90;;;;;;4975974;28;20136;-74
2023/06/18 09:40:22;;;;;;;11.13;9.85;;;26.40;83.10;;;;;;5013806;28;20473;-74
2023/06/18 09:42:50;;;;;;;11.38;9.68;;;26.40;82.20;;;;;;5001108;28;20544;-73
2023/06/18 09:45:18;;;;;;;10.52;9.43;;;26.50;81.50;;;;;;5010792;28;20140;-73
2023/06/18 09:47:47;;;;;;;11.27;10.10;;;26.70;81.70;;;;;;4992493;28;20108;-74
2023/06/18 09:50:15;;;;;;;11.45;9.52;;;26.90;80.10;;;;;;4991807;28;20156;-73
2023/06/18 09:52:48;;;;;;;11.63;9.95;;;27.20;79.30;;;;;;4992628;28;20108;-73
2023/06/18 09:55:28;;;;;;;12.93;9.68;;;27.50;79.10;;;;;;4976048;28;20116;-73
2023/06/18 09:57:57;;;;;;;10.52;9.35;;;27.50;77.80;;;;;;4977693;28;20046;-72
2023/06/18 10:00:26;;;;;;;10.45;8.98;;;27.50;77.20;;;;;;5000808;28;20588;-72
2023/06/18 10:03:04;;;;;;;9.98;8.88;;;27.40;75.90;;;;;;4973109;28;20136;-72
2023/06/18 10:05:32;;;;;;;11.52;9.20;;;27.50;74.40;;;;;;4977026;28;20054;-73
2023/06/18 10:08:03;;;;;;;10.45;9.00;;;27.50;73.50;;;;;;4992736;28;20080;-73
2023/06/18 10:10:36;;;;;;;10.40;9.30;;;27.80;74.90;;;;;;4977049;28;20141;-73
2023/06/18 10:13:08;;;;;;;10.40;8.73;;;27.60;74.80;;;;;;4991769;28;20045;-72
2023/06/18 10:15:39;;;;;;;10.40;9.23;;;27.70;73.20;;;;;;4975468;28;20073;-73
2023/06/18 10:18:10;;;;;;;9.70;8.73;;;27.70;73.60;;;;;;4959190;28;20378;-73
2023/06/18 10:20:38;;;;;;;10.55;8.55;;;28.10;73.30;;;;;;5008892;28;20049;-73
2023/06/18 10:23:06;;;;;;;10.63;8.65;;;28.20;71.60;;;;;;4992610;28;20129;-73
2023/06/18 10:25:34;;;;;;;13.05;8.90;;;28.20;69.80;;;;;;4992394;28;20057;-74
2023/06/18 10:28:03;;;;;;;9.05;8.13;;;28.40;68.50;;;;;;4976064;28;20053;-74
2023/06/18 10:30:30;;;;;;;10.15;8.10;;;28.50;66.50;;;;;;4983001;28;20058;-74
2023/06/18 10:32:58;;;;;;;8.55;7.65;;;28.50;64.30;;;;;;4976198;28;20057;-73
2023/06/18 10:35:27;;;;;;;9.02;8.13;;;28.90;63.30;;;;;;4992099;28;20049;-73
2023/06/18 10:37:56;;;;;;;8.70;7.90;;;29.10;62.20;;;;;;4983439;28;20041;-73
2023/06/18 10:40:25;;;;;;;9.18;8.25;;;29.40;62.30;;;;;;4993542;28;20078;-72
2023/06/18 10:43:03;;;;;;;9.07;7.72;;;29.60;62.60;;;;;;5016943;28;20034;-74
2023/06/18 10:45:31;;;;;;;10.40;9.25;;;29.10;61.70;;;;;;4982569;28;20054;-73
2023/06/18 10:48:19;;;;;;;10.60;9.52;;;29.40;62.00;;;;;;4972483;28;20750;-73
2023/06/18 10:51:18;;;;;;;9.27;8.38;;;30.00;61.70;;;;;;4945100;28;20045;-73
2023/06/18 10:53:46;;;;;;;9.20;8.27;;;30.10;60.00;;;;;;4986188;28;20085;-73
2023/06/18 10:56:15;;;;;;;9.32;8.43;;;29.70;60.90;;;;;;4992079;28;20076;-73
2023/06/18 10:58:43;;;;;;;12.65;8.52;;;29.80;60.40;;;;;;4977699;28;20049;-73
2023/06/18 11:01:26;;;;;;;10.98;8.02;;;29.60;60.30;;;;;;5013585;28;20073;-73
2023/06/18 11:04:05;;;;;;;9.68;8.10;;;29.90;59.30;;;;;;5001539;28;20048;-72
2023/06/18 11:06:33;;;;;;;9.70;8.15;;;30.40;58.90;;;;;;4975821;28;20100;-73
2023/06/18 11:09:01;;;;;;;9.10;8.13;;;30.90;58.20;;;;;;4997833;28;20502;-72
2023/06/18 11:11:31;;;;;;;10.05;8.73;;;30.80;56.90;;;;;;4975377;28;20064;-72
2023/06/18 11:14:17;;;;;;;9.27;8.38;;;31.00;57.60;;;;;;4991279;28;20089;-72
2023/06/18 11:17:10;;;;;;;10.32;8.50;;;31.30;58.00;;;;;;4967900;28;20520;-73
2023/06/18 11:19:41;;;;;;;9.45;8.55;;;31.50;57.00;;;;;;5009814;28;20461;-74
2023/06/18 11:22:12;;;;;;;10.10;8.25;;;31.60;57.10;;;;;;4977327;28;20469;-74
2023/06/18 11:24:40;;;;;;;9.35;8.35;;;31.30;57.20;;;;;;5012008;28;20510;-74
2023/06/18 11:27:08;;;;;;;12.23;8.88;;;31.30;57.00;;;;;;4995468;28;20046;-73
2023/06/18 11:29:36;;;;;;;9.13;8.23;;;31.10;56.60;;;;;;4994492;28;20570;-73
2023/06/18 11:32:15;;;;;;;10.10;9.15;;;30.90;56.70;;;;;;5009878;28;20119;-73
2023/06/18 11:34:43;;;;;;;10.40;9.40;;;31.50;56.70;;;;;;4994843;28;20050;-73
2023/06/18 11:37:10;;;;;;;16.60;8.98;;;31.90;55.60;;;;;;5014108;28;20460;-73
2023/06/18 11:39:40;;;;;;;9.15;8.20;;;32.10;55.20;;;;;;4993863;28;20413;-73
2023/06/18 11:42:20;;;;;;;10.85;8.85;;;31.90;55.20;;;;;;4979798;28;20056;-73
2023/06/18 11:45:03;;;;;;;9.65;8.65;;;31.90;54.90;;;;;;4990406;28;20053;-72
2023/06/18 11:47:34;;;;;;;9.98;8.32;;;32.20;54.60;;;;;;4978553;28;20140;-73
2023/06/18 11:50:03;;;;;;;9.55;8.60;;;32.20;54.40;;;;;;5010668;28;20053;-73
2023/06/18 11:52:31;;;;;;;9.73;8.77;;;32.30;54.60;;;;;;4994236;28;20065;-75
2023/06/18 11:55:03;;;;;;;10.90;8.75;;;32.80;54.20;;;;;;5011490;28;20049;-72
2023/06/18 11:57:33;;;;;;;12.70;9.90;;;33.70;53.70;;;;;;4994368;28;20060;-73
2023/06/18 12:00:08;;;;;;;9.63;8.63;;;34.20;52.50;;;;;;5010880;28;20490;-73
2023/06/18 12:02:40;;;;;;;10.38;9.32;;;34.60;51.90;;;;;;5011439;28;20149;-74
2023/06/18 12:05:10;;;;;;;9.88;8.93;;;35.00;50.80;;;;;;5011268;28;20038;-74
2023/06/18 12:07:44;;;;;;;9.15;8.25;;;35.10;51.40;;;;;;5012065;28;20544;-72
2023/06/18 12:10:13;;;;;;;10.07;9.07;;;34.50;50.20;;;;;;4994676;28;20058;-73
2023/06/18 12:13:00;;;;;;;10.07;8.68;;;34.50;50.70;;;;;;4994083;28;20459;-73
2023/06/18 12:15:51;;;;;;;8.95;8.05;;;34.70;49.70;;;;;;4993140;28;20528;-73
2023/06/18 12:18:28;;;;;;;10.05;9.05;;;34.70;49.50;;;;;;4995425;28;20409;-73
2023/06/18 12:20:56;;;;;;;10.48;8.73;;;35.00;49.30;;;;;;5013186;28;20038;-72
2023/06/18 12:23:24;;;;;;;10.00;9.10;;;35.30;48.90;;;;;;5011173;28;20046;-73
2023/06/18 12:25:52;;;;;;;11.07;9.30;;;35.80;48.50;;;;;;4995070;28;20056;-72
2023/06/18 12:28:24;;;;;;;10.88;9.77;;;36.40;47.80;;;;;;5011088;28;20068;-74
2023/06/18 12:30:52;;;;;;;10.20;9.07;;;36.90;47.20;;;;;;4979176;28;20065;-73
2023/06/18 12:33:20;;;;;;;15.50;8.95;;;37.50;45.90;;;;;;5011676;28;20644;-74
2023/06/18 12:35:56;;;;;;;13.73;9.90;;;37.60;45.30;;;;;;4994713;28;20045;-73
2023/06/18 12:38:25;;;;;;;9.52;8.65;;;37.80;45.30;;;;;;4978000;28;20041;-73
2023/06/18 12:41:00;;;;;;;9.73;8.73;;;38.10;44.30;;;;;;4978418;28;20046;-73
2023/06/18 12:43:27;;;;;;;9.75;8.77;;;38.20;44.00;;;;;;4993396;28;20046;-73
2023/06/18 12:45:55;;;;;;;9.50;8.23;;;37.60;44.40;;;;;;4994714;28;20061;-73
2023/06/18 12:48:27;;;;;;;11.57;9.07;;;37.60;43.90;;;;;;5011693;28;20042;-73